Bowling Green Warren County Regional Airport Bowling Green US
ICAO: KBWG
IATA: BWG
Category: Medium
Scheduled Services: No

Elevation: 547 ft
TransAlt. 18000 ft.

Airport Communications:
ASOS:127.825
MEMPHIS CNTR:133.85
LOUISVILLE RDO:122.2
CTAF/UNICOM:123

KBWG Zoom In..

Runways:

(A) RW 03 length 6499 ft width 150 ft
ILS 108.75 / hdg 32

(B) RW 12 length 3955 ft width 150 ft
---- / hdg 122

(C) RW 21 length 6499 ft width 150 ft
---- / hdg 212

(D) RW 30 length 3955 ft width 150 ft
---- / hdg 302

Location; KBWG
Day. 30 / Time. 23.06 Zulu
* Altimeter: 29.97
* Temperature: 01° c. 33.8°f.
* Wind from: 320° Speed 07 kn with Gusts up to 20 kn.
Dewpoint: -01° c.
Visibility: 2 m.
Clouds: Broken 1300 ft.
Clouds: Broken 2600 ft.
Clouds: Overcast 3300 ft.
Conditions: Light Snow.Conditions: Mist.

KBWG 302306Z AUTO 32007G20KT 2 1/2SM -SN BR BKN013 BKN026 OVC033 01/M01 A2997 RMK AO2 SNB2258 P0000 T00111011

Going to: --> -->


Wind From 320°
Speed 07 kn.

 
 
jpsmedia worldairports.se 2020   terms of use